sensor_id;sensor_type;location;lat;lon;timestamp;P1;durP1;ratioP1;P2;durP2;ratioP2
46613;SDS011;32338;50.430;6.806;2023-12-28T00:00:01;2.35;;;1.40;;
46613;SDS011;32338;50.430;6.806;2023-12-28T00:02:28;3.40;;;1.33;;
46613;SDS011;32338;50.430;6.806;2023-12-28T00:04:56;2.47;;;1.10;;
46613;SDS011;32338;50.430;6.806;2023-12-28T00:07:23;2.92;;;1.23;;
46613;SDS011;32338;50.430;6.806;2023-12-28T00:09:49;1.52;;;1.10;;
46613;SDS011;32338;50.430;6.806;2023-12-28T00:12:16;2.75;;;1.20;;
46613;SDS011;32338;50.430;6.806;2023-12-28T00:14:41;1.63;;;1.20;;
46613;SDS011;32338;50.430;6.806;2023-12-28T00:17:08;2.65;;;1.55;;
46613;SDS011;32338;50.430;6.806;2023-12-28T00:19:34;3.65;;;1.23;;
46613;SDS011;32338;50.430;6.806;2023-12-28T00:22:02;2.20;;;1.40;;
46613;SDS011;32338;50.430;6.806;2023-12-28T00:24:29;1.95;;;1.25;;
46613;SDS011;32338;50.430;6.806;2023-12-28T00:26:56;2.42;;;1.42;;
46613;SDS011;32338;50.430;6.806;2023-12-28T00:29:22;1.83;;;1.42;;
46613;SDS011;32338;50.430;6.806;2023-12-28T00:31:49;2.50;;;1.35;;
46613;SDS011;32338;50.430;6.806;2023-12-28T00:34:15;1.83;;;1.48;;
46613;SDS011;32338;50.430;6.806;2023-12-28T00:36:42;2.80;;;1.65;;
46613;SDS011;32338;50.430;6.806;2023-12-28T00:39:10;3.47;;;1.95;;
46613;SDS011;32338;50.430;6.806;2023-12-28T00:41:36;3.13;;;1.50;;
46613;SDS011;32338;50.430;6.806;2023-12-28T00:44:03;4.40;;;1.65;;
46613;SDS011;32338;50.430;6.806;2023-12-28T00:46:31;3.08;;;1.60;;
46613;SDS011;32338;50.430;6.806;2023-12-28T00:48:58;2.30;;;1.73;;
46613;SDS011;32338;50.430;6.806;2023-12-28T00:51:24;2.67;;;1.63;;
46613;SDS011;32338;50.430;6.806;2023-12-28T00:53:51;5.35;;;1.70;;
46613;SDS011;32338;50.430;6.806;2023-12-28T00:56:19;5.47;;;1.73;;
46613;SDS011;32338;50.430;6.806;2023-12-28T00:58:46;2.92;;;1.50;;
46613;SDS011;32338;50.430;6.806;2023-12-28T01:01:13;3.17;;;2.00;;
46613;SDS011;32338;50.430;6.806;2023-12-28T01:03:39;3.17;;;1.77;;
46613;SDS011;32338;50.430;6.806;2023-12-28T01:06:06;2.28;;;1.50;;
46613;SDS011;32338;50.430;6.806;2023-12-28T01:08:32;1.77;;;1.33;;
46613;SDS011;32338;50.430;6.806;2023-12-28T01:10:59;2.03;;;1.35;;
46613;SDS011;32338;50.430;6.806;2023-12-28T01:13:28;2.03;;;1.77;;
46613;SDS011;32338;50.430;6.806;2023-12-28T01:15:55;3.20;;;1.55;;
46613;SDS011;32338;50.430;6.806;2023-12-28T01:18:22;2.88;;;2.00;;
46613;SDS011;32338;50.430;6.806;2023-12-28T01:20:49;2.03;;;1.60;;
46613;SDS011;32338;50.430;6.806;2023-12-28T01:23:15;3.58;;;1.90;;
46613;SDS011;32338;50.430;6.806;2023-12-28T01:25:42;2.30;;;1.65;;
46613;SDS011;32338;50.430;6.806;2023-12-28T01:28:08;4.93;;;1.45;;
46613;SDS011;32338;50.430;6.806;2023-12-28T01:30:36;1.50;;;1.30;;
46613;SDS011;32338;50.430;6.806;2023-12-28T01:33:03;2.75;;;1.42;;
46613;SDS011;32338;50.430;6.806;2023-12-28T01:35:30;1.50;;;1.20;;
46613;SDS011;32338;50.430;6.806;2023-12-28T01:37:56;2.13;;;1.33;;
46613;SDS011;32338;50.430;6.806;2023-12-28T01:40:25;1.65;;;1.35;;
46613;SDS011;32338;50.430;6.806;2023-12-28T01:42:51;1.90;;;1.30;;
46613;SDS011;32338;50.430;6.806;2023-12-28T01:45:18;2.25;;;1.45;;
46613;SDS011;32338;50.430;6.806;2023-12-28T01:47:46;1.90;;;1.00;;
46613;SDS011;32338;50.430;6.806;2023-12-28T01:50:14;1.42;;;1.20;;
46613;SDS011;32338;50.430;6.806;2023-12-28T01:52:41;1.45;;;1.00;;
46613;SDS011;32338;50.430;6.806;2023-12-28T01:55:08;1.55;;;1.10;;
46613;SDS011;32338;50.430;6.806;2023-12-28T01:57:35;1.52;;;1.10;;
46613;SDS011;32338;50.430;6.806;2023-12-28T02:00:02;1.52;;;1.00;;
46613;SDS011;32338;50.430;6.806;2023-12-28T02:02:30;3.55;;;1.00;;
46613;SDS011;32338;50.430;6.806;2023-12-28T02:04:58;1.65;;;1.30;;
46613;SDS011;32338;50.430;6.806;2023-12-28T02:07:25;3.95;;;1.08;;
46613;SDS011;32338;50.430;6.806;2023-12-28T02:09:52;0.80;;;0.80;;
46613;SDS011;32338;50.430;6.806;2023-12-28T02:12:18;3.60;;;1.10;;
46613;SDS011;32338;50.430;6.806;2023-12-28T02:14:45;2.38;;;1.27;;
46613;SDS011;32338;50.430;6.806;2023-12-28T02:17:13;2.75;;;1.23;;
46613;SDS011;32338;50.430;6.806;2023-12-28T02:19:45;2.47;;;1.30;;
46613;SDS011;32338;50.430;6.806;2023-12-28T02:22:17;3.03;;;1.52;;
46613;SDS011;32338;50.430;6.806;2023-12-28T02:24:55;2.88;;;1.30;;
46613;SDS011;32338;50.430;6.806;2023-12-28T02:27:30;2.80;;;1.40;;
46613;SDS011;32338;50.430;6.806;2023-12-28T02:29:57;3.30;;;1.30;;
46613;SDS011;32338;50.430;6.806;2023-12-28T02:32:25;1.65;;;1.25;;
46613;SDS011;32338;50.430;6.806;2023-12-28T02:35:06;2.17;;;1.60;;
46613;SDS011;32338;50.430;6.806;2023-12-28T02:37:44;5.15;;;1.98;;
46613;SDS011;32338;50.430;6.806;2023-12-28T02:40:15;2.03;;;1.60;;
46613;SDS011;32338;50.430;6.806;2023-12-28T02:42:42;2.47;;;2.25;;
46613;SDS011;32338;50.430;6.806;2023-12-28T02:45:09;2.90;;;2.17;;
46613;SDS011;32338;50.430;6.806;2023-12-28T02:47:35;2.88;;;2.22;;
46613;SDS011;32338;50.430;6.806;2023-12-28T02:50:02;3.20;;;2.60;;
46613;SDS011;32338;50.430;6.806;2023-12-28T02:52:29;2.67;;;2.22;;
46613;SDS011;32338;50.430;6.806;2023-12-28T02:54:56;3.30;;;2.47;;
46613;SDS011;32338;50.430;6.806;2023-12-28T02:57:24;4.35;;;2.55;;
46613;SDS011;32338;50.430;6.806;2023-12-28T02:59:50;3.35;;;2.42;;
46613;SDS011;32338;50.430;6.806;2023-12-28T03:02:17;2.88;;;2.22;;
46613;SDS011;32338;50.430;6.806;2023-12-28T03:04:43;3.03;;;2.30;;
46613;SDS011;32338;50.430;6.806;2023-12-28T03:07:10;3.92;;;2.33;;
46613;SDS011;32338;50.430;6.806;2023-12-28T03:09:37;2.88;;;2.55;;
46613;SDS011;32338;50.430;6.806;2023-12-28T03:12:05;4.00;;;2.55;;
46613;SDS011;32338;50.430;6.806;2023-12-28T03:14:33;2.85;;;2.53;;
46613;SDS011;32338;50.430;6.806;2023-12-28T03:16:59;4.75;;;2.63;;
46613;SDS011;32338;50.430;6.806;2023-12-28T03:19:25;2.85;;;2.17;;
46613;SDS011;32338;50.430;6.806;2023-12-28T03:21:52;4.88;;;2.83;;
46613;SDS011;32338;50.430;6.806;2023-12-28T03:24:18;4.28;;;3.03;;
46613;SDS011;32338;50.430;6.806;2023-12-28T03:26:45;3.53;;;2.83;;
46613;SDS011;32338;50.430;6.806;2023-12-28T03:29:11;3.33;;;2.92;;
46613;SDS011;32338;50.430;6.806;2023-12-28T03:31:40;4.07;;;2.47;;
46613;SDS011;32338;50.430;6.806;2023-12-28T03:34:06;3.22;;;2.67;;
46613;SDS011;32338;50.430;6.806;2023-12-28T03:36:33;3.00;;;2.13;;
46613;SDS011;32338;50.430;6.806;2023-12-28T03:38:59;2.42;;;2.20;;
46613;SDS011;32338;50.430;6.806;2023-12-28T03:41:26;5.35;;;2.30;;
46613;SDS011;32338;50.430;6.806;2023-12-28T03:43:52;4.22;;;2.17;;
46613;SDS011;32338;50.430;6.806;2023-12-28T03:46:19;4.80;;;2.20;;
46613;SDS011;32338;50.430;6.806;2023-12-28T03:48:47;2.97;;;1.92;;
46613;SDS011;32338;50.430;6.806;2023-12-28T03:51:14;3.67;;;2.30;;
46613;SDS011;32338;50.430;6.806;2023-12-28T03:53:40;2.80;;;2.50;;
46613;SDS011;32338;50.430;6.806;2023-12-28T03:56:07;8.00;;;2.33;;
46613;SDS011;32338;50.430;6.806;2023-12-28T03:58:34;4.07;;;3.03;;
46613;SDS011;32338;50.430;6.806;2023-12-28T04:01:00;2.65;;;2.05;;
46613;SDS011;32338;50.430;6.806;2023-12-28T04:03:27;2.80;;;1.80;;
46613;SDS011;32338;50.430;6.806;2023-12-28T04:05:55;3.28;;;2.00;;
46613;SDS011;32338;50.430;6.806;2023-12-28T04:08:21;3.05;;;1.95;;
46613;SDS011;32338;50.430;6.806;2023-12-28T04:10:48;3.42;;;1.60;;
46613;SDS011;32338;50.430;6.806;2023-12-28T04:13:14;7.38;;;2.08;;
46613;SDS011;32338;50.430;6.806;2023-12-28T04:15:41;3.25;;;1.85;;
46613;SDS011;32338;50.430;6.806;2023-12-28T04:18:08;5.78;;;2.67;;
46613;SDS011;32338;50.430;6.806;2023-12-28T04:20:34;4.57;;;2.00;;
46613;SDS011;32338;50.430;6.806;2023-12-28T04:23:02;4.25;;;2.03;;
46613;SDS011;32338;50.430;6.806;2023-12-28T04:25:29;1.95;;;1.73;;
46613;SDS011;32338;50.430;6.806;2023-12-28T04:27:56;3.47;;;1.63;;
46613;SDS011;32338;50.430;6.806;2023-12-28T04:30:22;4.85;;;1.70;;
46613;SDS011;32338;50.430;6.806;2023-12-28T04:32:49;3.90;;;1.55;;
46613;SDS011;32338;50.430;6.806;2023-12-28T04:35:15;3.55;;;1.52;;
46613;SDS011;32338;50.430;6.806;2023-12-28T04:37:42;2.28;;;1.52;;
46613;SDS011;32338;50.430;6.806;2023-12-28T04:40:10;2.17;;;1.73;;
46613;SDS011;32338;50.430;6.806;2023-12-28T04:42:39;6.22;;;1.67;;
46613;SDS011;32338;50.430;6.806;2023-12-28T04:45:06;5.13;;;1.63;;
46613;SDS011;32338;50.430;6.806;2023-12-28T04:47:33;5.25;;;2.13;;
46613;SDS011;32338;50.430;6.806;2023-12-28T04:50:00;2.90;;;1.55;;
46613;SDS011;32338;50.430;6.806;2023-12-28T04:52:27;4.78;;;1.60;;
46613;SDS011;32338;50.430;6.806;2023-12-28T04:54:54;4.03;;;1.40;;
46613;SDS011;32338;50.430;6.806;2023-12-28T04:57:22;3.72;;;1.23;;
46613;SDS011;32338;50.430;6.806;2023-12-28T04:59:49;3.15;;;1.42;;
46613;SDS011;32338;50.430;6.806;2023-12-28T05:02:16;3.90;;;1.60;;
46613;SDS011;32338;50.430;6.806;2023-12-28T05:04:43;5.78;;;1.60;;
46613;SDS011;32338;50.430;6.806;2023-12-28T05:07:09;3.67;;;1.42;;
46613;SDS011;32338;50.430;6.806;2023-12-28T05:09:36;3.88;;;1.55;;
46613;SDS011;32338;50.430;6.806;2023-12-28T05:12:03;2.83;;;1.40;;
46613;SDS011;32338;50.430;6.806;2023-12-28T05:14:32;3.92;;;1.35;;
46613;SDS011;32338;50.430;6.806;2023-12-28T05:16:59;1.88;;;1.40;;
46613;SDS011;32338;50.430;6.806;2023-12-28T05:19:25;2.88;;;1.52;;
46613;SDS011;32338;50.430;6.806;2023-12-28T05:21:52;2.70;;;1.13;;
46613;SDS011;32338;50.430;6.806;2023-12-28T05:24:19;2.53;;;1.35;;
46613;SDS011;32338;50.430;6.806;2023-12-28T05:26:45;2.30;;;1.50;;
46613;SDS011;32338;50.430;6.806;2023-12-28T05:29:12;3.25;;;1.70;;
46613;SDS011;32338;50.430;6.806;2023-12-28T05:31:40;4.60;;;1.33;;
46613;SDS011;32338;50.430;6.806;2023-12-28T05:34:06;5.10;;;1.50;;
46613;SDS011;32338;50.430;6.806;2023-12-28T05:36:33;2.92;;;1.42;;
46613;SDS011;32338;50.430;6.806;2023-12-28T05:38:59;2.15;;;1.65;;
46613;SDS011;32338;50.430;6.806;2023-12-28T05:41:26;2.67;;;1.67;;
46613;SDS011;32338;50.430;6.806;2023-12-28T05:43:52;5.00;;;1.67;;
46613;SDS011;32338;50.430;6.806;2023-12-28T05:46:19;5.13;;;1.50;;
46613;SDS011;32338;50.430;6.806;2023-12-28T05:48:47;4.63;;;1.60;;
46613;SDS011;32338;50.430;6.806;2023-12-28T05:51:13;3.53;;;1.38;;
46613;SDS011;32338;50.430;6.806;2023-12-28T05:53:40;3.08;;;1.15;;
46613;SDS011;32338;50.430;6.806;2023-12-28T05:56:08;2.30;;;1.30;;
46613;SDS011;32338;50.430;6.806;2023-12-28T05:58:34;3.95;;;1.55;;
46613;SDS011;32338;50.430;6.806;2023-12-28T06:01:01;7.25;;;1.55;;
46613;SDS011;32338;50.430;6.806;2023-12-28T06:03:30;1.63;;;1.10;;
46613;SDS011;32338;50.430;6.806;2023-12-28T06:05:57;4.30;;;1.27;;
46613;SDS011;32338;50.430;6.806;2023-12-28T06:08:24;3.33;;;1.38;;
46613;SDS011;32338;50.430;6.806;2023-12-28T06:10:51;3.67;;;1.30;;
46613;SDS011;32338;50.430;6.806;2023-12-28T06:13:17;5.00;;;1.50;;
46613;SDS011;32338;50.430;6.806;2023-12-28T06:15:44;5.78;;;1.27;;
46613;SDS011;32338;50.430;6.806;2023-12-28T06:18:10;4.25;;;1.15;;
46613;SDS011;32338;50.430;6.806;2023-12-28T06:20:37;4.50;;;1.52;;
46613;SDS011;32338;50.430;6.806;2023-12-28T06:23:06;1.90;;;1.20;;
46613;SDS011;32338;50.430;6.806;2023-12-28T06:25:33;5.97;;;1.38;;
46613;SDS011;32338;50.430;6.806;2023-12-28T06:27:59;2.15;;;1.00;;
46613;SDS011;32338;50.430;6.806;2023-12-28T06:30:26;3.75;;;1.00;;
46613;SDS011;32338;50.430;6.806;2023-12-28T06:32:52;3.50;;;1.20;;
46613;SDS011;32338;50.430;6.806;2023-12-28T06:35:19;4.38;;;1.08;;
46613;SDS011;32338;50.430;6.806;2023-12-28T06:37:46;1.88;;;1.10;;
46613;SDS011;32338;50.430;6.806;2023-12-28T06:40:14;2.67;;;1.05;;
46613;SDS011;32338;50.430;6.806;2023-12-28T06:42:41;5.68;;;0.90;;
46613;SDS011;32338;50.430;6.806;2023-12-28T06:45:08;4.28;;;1.20;;
46613;SDS011;32338;50.430;6.806;2023-12-28T06:47:36;4.30;;;0.90;;
46613;SDS011;32338;50.430;6.806;2023-12-28T06:50:02;3.30;;;0.90;;
46613;SDS011;32338;50.430;6.806;2023-12-28T06:52:29;3.20;;;0.98;;
46613;SDS011;32338;50.430;6.806;2023-12-28T06:54:56;2.22;;;0.90;;
46613;SDS011;32338;50.430;6.806;2023-12-28T06:57:24;3.40;;;1.05;;
46613;SDS011;32338;50.430;6.806;2023-12-28T06:59:51;4.47;;;1.02;;
46613;SDS011;32338;50.430;6.806;2023-12-28T07:02:17;4.45;;;1.10;;
46613;SDS011;32338;50.430;6.806;2023-12-28T07:04:44;3.05;;;0.98;;
46613;SDS011;32338;50.430;6.806;2023-12-28T07:07:10;2.40;;;1.00;;
46613;SDS011;32338;50.430;6.806;2023-12-28T07:09:37;4.18;;;1.30;;
46613;SDS011;32338;50.430;6.806;2023-12-28T07:12:04;4.25;;;1.17;;
46613;SDS011;32338;50.430;6.806;2023-12-28T07:14:33;4.00;;;0.90;;
46613;SDS011;32338;50.430;6.806;2023-12-28T07:17:01;7.15;;;1.08;;
46613;SDS011;32338;50.430;6.806;2023-12-28T07:19:27;1.80;;;1.00;;
46613;SDS011;32338;50.430;6.806;2023-12-28T07:21:54;3.10;;;1.30;;
46613;SDS011;32338;50.430;6.806;2023-12-28T07:24:20;3.92;;;1.00;;
46613;SDS011;32338;50.430;6.806;2023-12-28T07:26:47;2.75;;;0.90;;
46613;SDS011;32338;50.430;6.806;2023-12-28T07:29:14;1.83;;;0.93;;
46613;SDS011;32338;50.430;6.806;2023-12-28T07:31:41;2.75;;;0.82;;
46613;SDS011;32338;50.430;6.806;2023-12-28T07:34:08;4.97;;;1.17;;
46613;SDS011;32338;50.430;6.806;2023-12-28T07:36:35;4.63;;;1.00;;
46613;SDS011;32338;50.430;6.806;2023-12-28T07:39:01;4.35;;;0.88;;
46613;SDS011;32338;50.430;6.806;2023-12-28T07:41:28;2.08;;;0.75;;
46613;SDS011;32338;50.430;6.806;2023-12-28T07:43:55;3.35;;;1.10;;
46613;SDS011;32338;50.430;6.806;2023-12-28T07:46:21;5.40;;;0.90;;
46613;SDS011;32338;50.430;6.806;2023-12-28T07:48:49;2.30;;;0.82;;
46613;SDS011;32338;50.430;6.806;2023-12-28T07:51:16;1.90;;;0.70;;
46613;SDS011;32338;50.430;6.806;2023-12-28T07:53:42;4.07;;;1.10;;
46613;SDS011;32338;50.430;6.806;2023-12-28T07:56:09;4.65;;;0.95;;
46613;SDS011;32338;50.430;6.806;2023-12-28T07:58:36;3.38;;;1.10;;
46613;SDS011;32338;50.430;6.806;2023-12-28T08:01:08;3.08;;;0.80;;
46613;SDS011;32338;50.430;6.806;2023-12-28T08:03:35;3.28;;;0.80;;
46613;SDS011;32338;50.430;6.806;2023-12-28T08:06:04;5.25;;;0.93;;
46613;SDS011;32338;50.430;6.806;2023-12-28T08:08:31;3.30;;;0.90;;
46613;SDS011;32338;50.430;6.806;2023-12-28T08:10:58;3.58;;;0.90;;
46613;SDS011;32338;50.430;6.806;2023-12-28T08:13:24;4.05;;;0.80;;
46613;SDS011;32338;50.430;6.806;2023-12-28T08:15:51;1.52;;;0.90;;
46613;SDS011;32338;50.430;6.806;2023-12-28T08:18:17;3.95;;;0.90;;
46613;SDS011;32338;50.430;6.806;2023-12-28T08:20:44;4.07;;;0.93;;
46613;SDS011;32338;50.430;6.806;2023-12-28T08:23:12;3.30;;;0.82;;
46613;SDS011;32338;50.430;6.806;2023-12-28T08:25:38;3.35;;;0.90;;
46613;SDS011;32338;50.430;6.806;2023-12-28T08:28:05;5.03;;;1.00;;
46613;SDS011;32338;50.430;6.806;2023-12-28T08:30:31;5.45;;;0.85;;
46613;SDS011;32338;50.430;6.806;2023-12-28T08:32:58;1.20;;;0.70;;
46613;SDS011;32338;50.430;6.806;2023-12-28T08:35:24;4.85;;;0.95;;
46613;SDS011;32338;50.430;6.806;2023-12-28T08:37:51;4.30;;;0.90;;
46613;SDS011;32338;50.430;6.806;2023-12-28T08:40:19;4.95;;;1.65;;
46613;SDS011;32338;50.430;6.806;2023-12-28T08:42:45;6.03;;;1.00;;
46613;SDS011;32338;50.430;6.806;2023-12-28T08:45:12;4.25;;;0.93;;
46613;SDS011;32338;50.430;6.806;2023-12-28T08:47:39;3.97;;;1.15;;
46613;SDS011;32338;50.430;6.806;2023-12-28T08:50:06;2.33;;;0.77;;
46613;SDS011;32338;50.430;6.806;2023-12-28T08:52:32;6.15;;;1.02;;
46613;SDS011;32338;50.430;6.806;2023-12-28T08:54:59;8.48;;;0.88;;
46613;SDS011;32338;50.430;6.806;2023-12-28T08:57:27;2.80;;;0.93;;
46613;SDS011;32338;50.430;6.806;2023-12-28T08:59:54;2.38;;;0.77;;
46613;SDS011;32338;50.430;6.806;2023-12-28T09:02:20;4.05;;;1.05;;
46613;SDS011;32338;50.430;6.806;2023-12-28T09:04:48;6.75;;;0.82;;
46613;SDS011;32338;50.430;6.806;2023-12-28T09:07:14;3.05;;;0.85;;
46613;SDS011;32338;50.430;6.806;2023-12-28T09:09:41;1.92;;;1.00;;
46613;SDS011;32338;50.430;6.806;2023-12-28T09:12:08;5.03;;;1.02;;
46613;SDS011;32338;50.430;6.806;2023-12-28T09:14:36;4.75;;;0.90;;
46613;SDS011;32338;50.430;6.806;2023-12-28T09:17:03;1.25;;;0.60;;
46613;SDS011;32338;50.430;6.806;2023-12-28T09:19:30;4.13;;;0.82;;
46613;SDS011;32338;50.430;6.806;2023-12-28T09:21:56;4.35;;;0.82;;
46613;SDS011;32338;50.430;6.806;2023-12-28T09:24:23;7.10;;;0.98;;
46613;SDS011;32338;50.430;6.806;2023-12-28T09:26:49;2.30;;;0.60;;
46613;SDS011;32338;50.430;6.806;2023-12-28T09:29:16;5.40;;;0.57;;
46613;SDS011;32338;50.430;6.806;2023-12-28T09:31:45;2.47;;;1.27;;
46613;SDS011;32338;50.430;6.806;2023-12-28T09:34:12;4.07;;;0.70;;
46613;SDS011;32338;50.430;6.806;2023-12-28T09:36:38;3.55;;;1.02;;
46613;SDS011;32338;50.430;6.806;2023-12-28T09:39:05;5.70;;;0.88;;
46613;SDS011;32338;50.430;6.806;2023-12-28T09:41:33;8.75;;;1.23;;
46613;SDS011;32338;50.430;6.806;2023-12-28T09:44:07;3.42;;;1.17;;
46613;SDS011;32338;50.430;6.806;2023-12-28T09:46:36;3.88;;;0.80;;
46613;SDS011;32338;50.430;6.806;2023-12-28T09:49:05;6.70;;;0.90;;
46613;SDS011;32338;50.430;6.806;2023-12-28T09:51:31;3.88;;;0.80;;
46613;SDS011;32338;50.430;6.806;2023-12-28T09:53:57;3.60;;;0.95;;
46613;SDS011;32338;50.430;6.806;2023-12-28T09:56:24;2.78;;;1.00;;
46613;SDS011;32338;50.430;6.806;2023-12-28T09:58:51;6.32;;;0.90;;
46613;SDS011;32338;50.430;6.806;2023-12-28T10:01:19;6.68;;;0.80;;
46613;SDS011;32338;50.430;6.806;2023-12-28T10:03:46;4.10;;;0.80;;
46613;SDS011;32338;50.430;6.806;2023-12-28T10:06:14;5.15;;;0.98;;
46613;SDS011;32338;50.430;6.806;2023-12-28T10:08:44;3.50;;;0.98;;
46613;SDS011;32338;50.430;6.806;2023-12-28T10:11:12;1.70;;;0.80;;
46613;SDS011;32338;50.430;6.806;2023-12-28T10:13:41;7.82;;;1.00;;
46613;SDS011;32338;50.430;6.806;2023-12-28T10:16:09;6.85;;;0.90;;
46613;SDS011;32338;50.430;6.806;2023-12-28T10:18:36;1.95;;;0.68;;
46613;SDS011;32338;50.430;6.806;2023-12-28T10:21:03;5.70;;;0.73;;
46613;SDS011;32338;50.430;6.806;2023-12-28T10:23:31;5.05;;;0.70;;
46613;SDS011;32338;50.430;6.806;2023-12-28T10:25:57;4.53;;;0.70;;
46613;SDS011;32338;50.430;6.806;2023-12-28T10:28:24;3.38;;;0.90;;
46613;SDS011;32338;50.430;6.806;2023-12-28T10:30:54;5.70;;;0.70;;
46613;SDS011;32338;50.430;6.806;2023-12-28T10:33:21;2.17;;;0.70;;
46613;SDS011;32338;50.430;6.806;2023-12-28T10:35:48;10.90;;;0.90;;
46613;SDS011;32338;50.430;6.806;2023-12-28T10:38:16;3.08;;;0.85;;
46613;SDS011;32338;50.430;6.806;2023-12-28T10:40:45;4.13;;;0.65;;
46613;SDS011;32338;50.430;6.806;2023-12-28T10:43:14;8.07;;;1.23;;
46613;SDS011;32338;50.430;6.806;2023-12-28T10:45:42;3.60;;;0.82;;
46613;SDS011;32338;50.430;6.806;2023-12-28T10:48:13;5.05;;;0.88;;
46613;SDS011;32338;50.430;6.806;2023-12-28T10:50:40;4.57;;;0.85;;
46613;SDS011;32338;50.430;6.806;2023-12-28T10:53:14;2.83;;;0.90;;
46613;SDS011;32338;50.430;6.806;2023-12-28T10:55:53;4.13;;;0.75;;
46613;SDS011;32338;50.430;6.806;2023-12-28T10:58:32;3.95;;;0.93;;
46613;SDS011;32338;50.430;6.806;2023-12-28T11:01:06;7.00;;;0.88;;
46613;SDS011;32338;50.430;6.806;2023-12-28T11:03:37;3.13;;;0.85;;
46613;SDS011;32338;50.430;6.806;2023-12-28T11:06:07;4.70;;;1.00;;
46613;SDS011;32338;50.430;6.806;2023-12-28T11:08:34;8.45;;;1.02;;
46613;SDS011;32338;50.430;6.806;2023-12-28T11:11:04;6.13;;;1.48;;
46613;SDS011;32338;50.430;6.806;2023-12-28T11:13:32;2.70;;;0.80;;
46613;SDS011;32338;50.430;6.806;2023-12-28T11:16:01;4.45;;;0.80;;
46613;SDS011;32338;50.430;6.806;2023-12-28T11:18:29;2.58;;;0.63;;
46613;SDS011;32338;50.430;6.806;2023-12-28T11:20:56;7.35;;;1.48;;
46613;SDS011;32338;50.430;6.806;2023-12-28T11:23:24;4.80;;;0.80;;
46613;SDS011;32338;50.430;6.806;2023-12-28T11:25:51;2.72;;;0.60;;
46613;SDS011;32338;50.430;6.806;2023-12-28T11:28:18;4.78;;;0.90;;
46613;SDS011;32338;50.430;6.806;2023-12-28T11:30:46;4.72;;;0.70;;
46613;SDS011;32338;50.430;6.806;2023-12-28T11:33:13;6.18;;;1.00;;
46613;SDS011;32338;50.430;6.806;2023-12-28T11:35:40;4.53;;;1.50;;
46613;SDS011;32338;50.430;6.806;2023-12-28T11:38:08;3.80;;;0.70;;
46613;SDS011;32338;50.430;6.806;2023-12-28T11:40:41;5.93;;;0.77;;
46613;SDS011;32338;50.430;6.806;2023-12-28T11:43:14;8.38;;;0.85;;
46613;SDS011;32338;50.430;6.806;2023-12-28T11:45:48;5.78;;;0.98;;
46613;SDS011;32338;50.430;6.806;2023-12-28T11:48:23;5.03;;;0.80;;
46613;SDS011;32338;50.430;6.806;2023-12-28T11:50:52;5.38;;;0.88;;
46613;SDS011;32338;50.430;6.806;2023-12-28T11:53:22;7.25;;;0.90;;
46613;SDS011;32338;50.430;6.806;2023-12-28T11:55:49;5.18;;;0.75;;
46613;SDS011;32338;50.430;6.806;2023-12-28T11:58:16;5.15;;;0.52;;
46613;SDS011;32338;50.430;6.806;2023-12-28T12:00:43;3.85;;;0.73;;
46613;SDS011;32338;50.430;6.806;2023-12-28T12:03:11;6.18;;;0.88;;
46613;SDS011;32338;50.430;6.806;2023-12-28T12:05:38;8.65;;;1.52;;
46613;SDS011;32338;50.430;6.806;2023-12-28T12:08:05;3.63;;;0.63;;
46613;SDS011;32338;50.430;6.806;2023-12-28T12:10:33;2.00;;;0.55;;
46613;SDS011;32338;50.430;6.806;2023-12-28T12:13:00;10.35;;;0.90;;
46613;SDS011;32338;50.430;6.806;2023-12-28T12:15:27;5.15;;;0.68;;
46613;SDS011;32338;50.430;6.806;2023-12-28T12:17:55;5.22;;;0.88;;
46613;SDS011;32338;50.430;6.806;2023-12-28T12:20:23;3.60;;;0.60;;
46613;SDS011;32338;50.430;6.806;2023-12-28T12:22:51;4.53;;;0.70;;
46613;SDS011;32338;50.430;6.806;2023-12-28T12:25:18;4.15;;;0.68;;
46613;SDS011;32338;50.430;6.806;2023-12-28T12:27:44;2.22;;;0.57;;
46613;SDS011;32338;50.430;6.806;2023-12-28T12:30:11;2.75;;;0.50;;
46613;SDS011;32338;50.430;6.806;2023-12-28T12:32:38;3.88;;;0.50;;
46613;SDS011;32338;50.430;6.806;2023-12-28T12:35:07;2.42;;;0.70;;
46613;SDS011;32338;50.430;6.806;2023-12-28T12:37:43;3.92;;;0.60;;
46613;SDS011;32338;50.430;6.806;2023-12-28T12:40:11;5.60;;;1.15;;
46613;SDS011;32338;50.430;6.806;2023-12-28T12:42:39;5.85;;;0.90;;
46613;SDS011;32338;50.430;6.806;2023-12-28T12:45:07;5.00;;;0.93;;
46613;SDS011;32338;50.430;6.806;2023-12-28T12:47:34;7.93;;;1.70;;
46613;SDS011;32338;50.430;6.806;2023-12-28T12:50:01;6.63;;;1.67;;
46613;SDS011;32338;50.430;6.806;2023-12-28T12:52:28;6.70;;;0.88;;
46613;SDS011;32338;50.430;6.806;2023-12-28T12:54:57;6.70;;;0.70;;
46613;SDS011;32338;50.430;6.806;2023-12-28T12:57:24;5.80;;;0.70;;
46613;SDS011;32338;50.430;6.806;2023-12-28T12:59:51;4.07;;;0.75;;
46613;SDS011;32338;50.430;6.806;2023-12-28T13:02:18;6.05;;;0.50;;
46613;SDS011;32338;50.430;6.806;2023-12-28T13:04:45;4.68;;;0.98;;
46613;SDS011;32338;50.430;6.806;2023-12-28T13:07:11;4.07;;;0.85;;
46613;SDS011;32338;50.430;6.806;2023-12-28T13:09:38;5.35;;;0.80;;
46613;SDS011;32338;50.430;6.806;2023-12-28T13:12:06;4.97;;;0.70;;
46613;SDS011;32338;50.430;6.806;2023-12-28T13:14:34;5.68;;;0.55;;
46613;SDS011;32338;50.430;6.806;2023-12-28T13:17:00;5.22;;;0.68;;
46613;SDS011;32338;50.430;6.806;2023-12-28T13:19:27;5.88;;;0.90;;
46613;SDS011;32338;50.430;6.806;2023-12-28T13:21:54;6.55;;;0.73;;
46613;SDS011;32338;50.430;6.806;2023-12-28T13:24:20;8.63;;;0.70;;
46613;SDS011;32338;50.430;6.806;2023-12-28T13:26:47;5.60;;;0.50;;
46613;SDS011;32338;50.430;6.806;2023-12-28T13:29:15;4.78;;;0.73;;
46613;SDS011;32338;50.430;6.806;2023-12-28T13:31:42;4.00;;;0.90;;
46613;SDS011;32338;50.430;6.806;2023-12-28T13:34:09;4.47;;;0.80;;
46613;SDS011;32338;50.430;6.806;2023-12-28T13:36:36;3.78;;;0.65;;
46613;SDS011;32338;50.430;6.806;2023-12-28T13:39:03;3.75;;;0.52;;
46613;SDS011;32338;50.430;6.806;2023-12-28T13:41:30;4.80;;;0.70;;
46613;SDS011;32338;50.430;6.806;2023-12-28T13:43:57;6.28;;;1.20;;
46613;SDS011;32338;50.430;6.806;2023-12-28T13:46:28;5.20;;;0.93;;
46613;SDS011;32338;50.430;6.806;2023-12-28T13:48:55;5.47;;;0.60;;
46613;SDS011;32338;50.430;6.806;2023-12-28T13:51:21;3.08;;;0.65;;
46613;SDS011;32338;50.430;6.806;2023-12-28T13:53:48;8.55;;;0.60;;
46613;SDS011;32338;50.430;6.806;2023-12-28T13:56:15;4.28;;;0.73;;
46613;SDS011;32338;50.430;6.806;2023-12-28T13:58:42;6.28;;;0.68;;
46613;SDS011;32338;50.430;6.806;2023-12-28T14:01:09;2.78;;;0.63;;
46613;SDS011;32338;50.430;6.806;2023-12-28T14:03:37;2.65;;;0.50;;
46613;SDS011;32338;50.430;6.806;2023-12-28T14:06:04;5.95;;;0.70;;
46613;SDS011;32338;50.430;6.806;2023-12-28T14:08:30;4.30;;;0.70;;
46613;SDS011;32338;50.430;6.806;2023-12-28T14:10:57;4.75;;;0.77;;
46613;SDS011;32338;50.430;6.806;2023-12-28T14:13:24;5.13;;;0.65;;
46613;SDS011;32338;50.430;6.806;2023-12-28T14:15:50;5.45;;;0.55;;
46613;SDS011;32338;50.430;6.806;2023-12-28T14:18:17;4.82;;;0.73;;
46613;SDS011;32338;50.430;6.806;2023-12-28T14:20:45;3.10;;;0.65;;
46613;SDS011;32338;50.430;6.806;2023-12-28T14:23:12;4.95;;;0.77;;
46613;SDS011;32338;50.430;6.806;2023-12-28T14:25:38;6.32;;;0.70;;
46613;SDS011;32338;50.430;6.806;2023-12-28T14:28:06;5.00;;;0.75;;
46613;SDS011;32338;50.430;6.806;2023-12-28T14:30:33;1.73;;;0.50;;
46613;SDS011;32338;50.430;6.806;2023-12-28T14:33:00;1.50;;;0.60;;
46613;SDS011;32338;50.430;6.806;2023-12-28T14:35:27;4.10;;;0.75;;
46613;SDS011;32338;50.430;6.806;2023-12-28T14:37:56;3.85;;;0.60;;
46613;SDS011;32338;50.430;6.806;2023-12-28T14:40:22;2.45;;;0.57;;
46613;SDS011;32338;50.430;6.806;2023-12-28T14:42:49;2.90;;;0.50;;
46613;SDS011;32338;50.430;6.806;2023-12-28T14:45:16;3.60;;;0.40;;
46613;SDS011;32338;50.430;6.806;2023-12-28T14:47:43;3.58;;;0.57;;